createdAt,value
2023-01-17T00:02:21.563Z,0.70
2023-01-17T00:05:11.201Z,0.50
2023-01-17T00:07:56.414Z,0.40
2023-01-17T00:10:26.917Z,0.60
2023-01-17T00:12:56.808Z,0.50
2023-01-17T00:15:24.339Z,0.50
2023-01-17T00:17:51.120Z,0.60
2023-01-17T00:20:39.457Z,0.83
2023-01-17T00:23:35.142Z,0.50
2023-01-17T00:26:04.638Z,0.90
2023-01-17T00:28:42.239Z,0.40
2023-01-17T00:31:15.173Z,0.30
2023-01-17T00:33:42.037Z,0.27
2023-01-17T00:36:09.637Z,0.30
2023-01-17T00:38:38.168Z,0.50
2023-01-17T00:41:07.074Z,0.27
2023-01-17T00:43:52.665Z,0.30
2023-01-17T00:46:37.977Z,0.33
2023-01-17T00:49:23.544Z,0.40
2023-01-17T00:52:11.068Z,0.30
2023-01-17T00:54:56.361Z,0.37
2023-01-17T00:57:42.221Z,0.50
2023-01-17T01:00:30.446Z,0.30
2023-01-17T01:03:15.816Z,0.40
2023-01-17T01:06:01.059Z,0.30
2023-01-17T01:08:48.241Z,0.40
2023-01-17T01:11:39.076Z,0.40
2023-01-17T01:14:29.229Z,0.30
2023-01-17T01:17:14.494Z,0.40
2023-01-17T01:20:04.800Z,0.23
2023-01-17T01:22:50.046Z,0.40
2023-01-17T01:25:35.307Z,0.30
2023-01-17T01:28:31.949Z,0.50
2023-01-17T01:31:24.446Z,0.67
2023-01-17T01:33:52.701Z,0.50
2023-01-17T01:36:20.122Z,0.63
2023-01-17T01:38:46.733Z,0.63
2023-01-17T01:41:13.470Z,0.60
2023-01-17T01:43:49.043Z,0.60
2023-01-17T01:46:27.216Z,0.43
2023-01-17T01:49:02.857Z,0.50
2023-01-17T01:51:38.932Z,0.60
2023-01-17T01:54:12.038Z,0.53
2023-01-17T01:56:40.538Z,0.70
2023-01-17T01:59:14.195Z,0.73
2023-01-17T02:01:41.033Z,0.50
2023-01-17T02:04:11.655Z,0.57
2023-01-17T02:06:56.350Z,0.40
2023-01-17T02:09:24.253Z,0.40
2023-01-17T02:11:51.167Z,0.40
2023-01-17T02:14:20.397Z,0.80
2023-01-17T02:16:53.052Z,0.70
2023-01-17T02:19:45.761Z,0.90
2023-01-17T02:22:27.605Z,0.80
2023-01-17T02:25:09.679Z,1.10
2023-01-17T02:28:13.577Z,1.10
2023-01-17T02:30:46.126Z,1.30
2023-01-17T02:33:31.024Z,1.10
2023-01-17T02:36:22.569Z,1.00
2023-01-17T02:39:12.074Z,1.10
2023-01-17T02:41:45.998Z,0.90
2023-01-17T02:44:18.761Z,1.00
2023-01-17T02:46:57.416Z,0.70
2023-01-17T02:49:31.122Z,0.70
2023-01-17T02:52:08.334Z,0.60
2023-01-17T02:54:37.657Z,0.50
2023-01-17T02:57:22.864Z,0.47
2023-01-17T03:00:01.755Z,0.70
2023-01-17T03:02:43.807Z,0.33
2023-01-17T03:05:24.103Z,0.67
2023-01-17T03:07:52.357Z,0.70
2023-01-17T03:10:21.177Z,0.57
2023-01-17T03:12:48.506Z,0.67
2023-01-17T03:15:17.648Z,0.77
2023-01-17T03:17:50.652Z,0.70
2023-01-17T03:20:17.613Z,0.70
2023-01-17T03:22:44.337Z,0.83
2023-01-17T03:25:13.160Z,0.80
2023-01-17T03:27:39.858Z,0.87
2023-01-17T03:30:07.424Z,0.90
2023-01-17T03:32:34.114Z,0.90
2023-01-17T03:35:00.689Z,0.90
2023-01-17T03:37:27.358Z,1.20
2023-01-17T03:39:56.493Z,1.30
2023-01-17T03:42:23.032Z,1.00
2023-01-17T03:44:49.672Z,0.70
2023-01-17T03:47:16.306Z,0.90
2023-01-17T03:49:42.844Z,0.57
2023-01-17T03:52:09.502Z,0.70
2023-01-17T03:54:37.906Z,0.87
2023-01-17T03:57:04.986Z,0.80
2023-01-17T03:59:34.109Z,0.50
2023-01-17T04:02:01.416Z,0.50
2023-01-17T04:04:28.091Z,0.60
2023-01-17T04:06:57.086Z,0.60
2023-01-17T04:09:23.675Z,0.67
2023-01-17T04:11:51.072Z,0.60
2023-01-17T04:14:17.736Z,1.10
2023-01-17T04:16:44.621Z,0.90
2023-01-17T04:19:14.361Z,0.80
2023-01-17T04:21:40.970Z,0.50
2023-01-17T04:24:08.248Z,0.50
2023-01-17T04:26:35.077Z,0.60
2023-01-17T04:29:01.844Z,0.60
2023-01-17T04:31:28.515Z,0.60
2023-01-17T04:33:55.136Z,0.60
2023-01-17T04:36:21.906Z,0.50
2023-01-17T04:38:50.906Z,0.50
2023-01-17T04:41:17.477Z,0.50
2023-01-17T04:43:44.662Z,0.70
2023-01-17T04:46:11.623Z,0.40
2023-01-17T04:48:38.471Z,0.90
2023-01-17T04:51:07.700Z,0.53
2023-01-17T04:53:34.464Z,0.70
2023-01-17T04:56:01.087Z,0.57
2023-01-17T04:58:30.653Z,0.60
2023-01-17T05:01:02.028Z,0.77
2023-01-17T05:03:29.555Z,0.60
2023-01-17T05:05:56.382Z,0.80
2023-01-17T05:08:22.957Z,0.60
2023-01-17T05:10:49.605Z,1.03
2023-01-17T05:13:16.513Z,1.00
2023-01-17T05:15:43.888Z,1.00
2023-01-17T05:18:15.747Z,1.03
2023-01-17T05:20:42.829Z,1.20
2023-01-17T05:23:10.095Z,1.50
2023-01-17T05:25:37.516Z,1.60
2023-01-17T05:28:07.322Z,2.03
2023-01-17T05:30:36.239Z,1.50
2023-01-17T05:33:02.891Z,1.80
2023-01-17T05:35:35.278Z,1.80
2023-01-17T05:38:02.334Z,1.87
2023-01-17T05:40:31.112Z,2.27
2023-01-17T05:43:00.168Z,2.20
2023-01-17T05:45:28.879Z,2.10
2023-01-17T05:47:59.266Z,2.20
2023-01-17T05:50:34.202Z,2.23
2023-01-17T05:53:09.829Z,2.70
2023-01-17T05:55:37.012Z,3.23
2023-01-17T05:58:06.925Z,2.83
2023-01-17T06:00:33.623Z,2.70
2023-01-17T06:03:01.246Z,3.33
2023-01-17T06:05:28.878Z,3.03
2023-01-17T06:07:56.535Z,3.20
2023-01-17T06:10:24.084Z,3.17
2023-01-17T06:13:00.104Z,3.30
2023-01-17T06:15:26.707Z,3.20
2023-01-17T06:17:55.545Z,3.50
2023-01-17T06:20:24.464Z,4.10
2023-01-17T06:22:53.225Z,4.00
2023-01-17T06:25:19.812Z,4.10
2023-01-17T06:27:46.451Z,4.13
2023-01-17T06:30:15.953Z,4.20
2023-01-17T06:32:42.614Z,4.33
2023-01-17T06:35:09.913Z,4.80
2023-01-17T06:37:39.010Z,4.87
2023-01-17T06:40:06.595Z,5.07
2023-01-17T06:42:35.674Z,5.57
2023-01-17T06:45:02.580Z,5.77
2023-01-17T06:47:31.487Z,6.17
2023-01-17T06:49:58.287Z,6.90
2023-01-17T06:52:24.979Z,7.53
2023-01-17T06:54:54.142Z,8.30
2023-01-17T06:57:20.856Z,7.50
2023-01-17T06:59:47.693Z,8.77
2023-01-17T07:02:16.823Z,9.23
2023-01-17T07:04:48.015Z,8.47
2023-01-17T07:07:14.647Z,9.10
2023-01-17T07:09:44.112Z,9.97
2023-01-17T07:12:10.740Z,10.13
2023-01-17T07:14:37.729Z,9.43
2023-01-17T07:17:04.800Z,9.07
2023-01-17T07:19:35.712Z,9.57
2023-01-17T07:22:05.010Z,9.00
2023-01-17T07:24:32.894Z,8.87
2023-01-17T07:27:02.021Z,9.03
2023-01-17T07:29:30.864Z,9.23
2023-01-17T07:31:59.701Z,8.20
2023-01-17T07:34:33.558Z,8.93
2023-01-17T07:37:00.442Z,8.67
2023-01-17T07:39:27.261Z,8.43
2023-01-17T07:41:54.712Z,8.37
2023-01-17T07:44:22.061Z,8.20
2023-01-17T07:46:51.248Z,8.23
2023-01-17T07:49:20.602Z,7.53
2023-01-17T07:51:47.934Z,7.97
2023-01-17T07:54:17.006Z,8.13
2023-01-17T07:56:47.148Z,8.43
2023-01-17T07:59:14.212Z,7.70
2023-01-17T08:01:41.028Z,8.47
2023-01-17T08:04:11.723Z,8.30
2023-01-17T08:06:42.429Z,8.63
2023-01-17T08:09:09.217Z,8.77
2023-01-17T08:11:36.211Z,9.07
2023-01-17T08:14:02.811Z,8.53
2023-01-17T08:16:29.867Z,8.40
2023-01-17T08:18:59.496Z,8.53
2023-01-17T08:21:26.529Z,7.63
2023-01-17T08:23:55.634Z,7.70
2023-01-17T08:26:22.597Z,6.87
2023-01-17T08:29:00.550Z,8.73
2023-01-17T08:31:31.781Z,8.27
2023-01-17T08:33:58.493Z,8.03
2023-01-17T08:36:25.948Z,8.55
2023-01-17T08:38:53.234Z,7.90
2023-01-17T08:41:20.983Z,8.30
2023-01-17T08:43:49.168Z,8.03
2023-01-17T08:46:16.327Z,8.40
2023-01-17T08:48:43.586Z,8.23
2023-01-17T08:51:11.164Z,8.10
2023-01-17T08:53:38.059Z,8.53
2023-01-17T08:56:05.920Z,8.07
2023-01-17T08:58:33.175Z,7.67
2023-01-17T09:01:02.300Z,11.18
2023-01-17T09:03:30.113Z,10.98
2023-01-17T09:06:11.525Z,8.53
2023-01-17T09:08:38.531Z,8.00
2023-01-17T09:11:12.375Z,7.67
2023-01-17T09:13:39.474Z,10.63
2023-01-17T09:16:09.637Z,15.40
2023-01-17T09:18:36.787Z,14.77
2023-01-17T09:21:14.713Z,15.52
2023-01-17T09:23:41.847Z,10.27
2023-01-17T09:26:20.022Z,8.30
2023-01-17T09:28:46.875Z,7.70
2023-01-17T09:31:17.750Z,8.40
2023-01-17T09:33:44.807Z,7.93
2023-01-17T09:36:14.015Z,7.70
2023-01-17T09:38:44.194Z,7.50
2023-01-17T09:41:28.043Z,10.43
2023-01-17T09:43:57.572Z,8.30
2023-01-17T09:46:29.608Z,8.53
2023-01-17T09:49:14.398Z,7.97
2023-01-17T09:51:42.497Z,7.53
2023-01-17T09:54:22.765Z,8.50
2023-01-17T09:57:16.513Z,8.00
2023-01-17T10:00:08.682Z,7.37
2023-01-17T10:02:57.215Z,7.67
2023-01-17T10:05:43.396Z,7.80
2023-01-17T10:08:15.774Z,7.87
2023-01-17T10:11:15.369Z,7.30
2023-01-17T10:14:06.473Z,6.90
2023-01-17T10:16:55.961Z,7.07
2023-01-17T10:20:01.971Z,6.23
2023-01-17T10:22:40.840Z,6.70
2023-01-17T10:25:33.216Z,6.87
2023-01-17T10:28:08.624Z,6.87
2023-01-17T10:30:42.575Z,7.50
2023-01-17T10:33:18.351Z,6.67
2023-01-17T10:35:59.975Z,6.53
2023-01-17T10:38:37.068Z,6.23
2023-01-17T10:41:27.676Z,6.17
2023-01-17T10:44:32.582Z,6.30
2023-01-17T10:47:14.443Z,6.27
2023-01-17T10:49:52.798Z,10.77
2023-01-17T10:52:29.419Z,7.23
2023-01-17T10:55:17.243Z,6.47
2023-01-17T10:57:49.275Z,5.53
2023-01-17T11:00:22.027Z,6.50
2023-01-17T11:02:50.919Z,5.50
2023-01-17T11:05:25.029Z,5.77
2023-01-17T11:07:59.951Z,5.13
2023-01-17T11:10:47.204Z,5.53
2023-01-17T11:13:25.010Z,5.40
2023-01-17T11:15:57.803Z,5.00
2023-01-17T11:18:28.732Z,5.63
2023-01-17T11:21:17.472Z,6.67
2023-01-17T11:23:54.828Z,6.10
2023-01-17T11:26:27.450Z,5.60
2023-01-17T11:29:14.723Z,5.30
2023-01-17T11:31:41.532Z,5.87
2023-01-17T11:34:22.338Z,5.40
2023-01-17T11:36:50.125Z,5.77
2023-01-17T11:39:21.954Z,5.40
2023-01-17T11:41:48.933Z,5.60
2023-01-17T11:44:30.522Z,5.40
2023-01-17T11:47:17.084Z,4.97
2023-01-17T11:49:46.709Z,4.40
2023-01-17T11:52:27.406Z,4.65
2023-01-17T11:54:55.539Z,4.30
2023-01-17T11:57:28.127Z,4.75
2023-01-17T12:00:03.933Z,4.20
2023-01-17T12:02:42.741Z,4.00
2023-01-17T12:05:44.447Z,3.78
2023-01-17T12:08:22.854Z,3.93
2023-01-17T12:10:52.799Z,3.55
2023-01-17T12:13:54.812Z,4.20
2023-01-17T12:16:45.958Z,3.38
2023-01-17T12:19:33.761Z,2.95
2023-01-17T12:22:19.647Z,2.58
2023-01-17T12:25:02.047Z,2.78
2023-01-17T12:27:43.616Z,2.75
2023-01-17T12:30:10.541Z,2.45
2023-01-17T12:32:53.432Z,4.97
2023-01-17T12:35:36.861Z,4.32
2023-01-17T12:38:08.713Z,3.03
2023-01-17T12:41:01.590Z,5.43
2023-01-17T12:43:33.511Z,1.55
2023-01-17T12:46:05.108Z,1.42
2023-01-17T12:48:36.824Z,1.23
2023-01-17T12:51:43.333Z,0.70
2023-01-17T12:54:21.950Z,0.60
2023-01-17T12:57:02.476Z,0.57
2023-01-17T12:59:57.538Z,0.77
2023-01-17T13:02:42.912Z,1.23
2023-01-17T13:05:16.923Z,0.52
2023-01-17T13:07:56.510Z,0.70
2023-01-17T13:10:38.148Z,0.70
2023-01-17T13:13:32.858Z,0.52
2023-01-17T13:16:11.715Z,1.00
2023-01-17T13:18:45.459Z,0.82
2023-01-17T13:21:33.189Z,0.90
2023-01-17T13:23:59.910Z,0.80
2023-01-17T13:26:55.645Z,0.73
2023-01-17T13:29:50.578Z,0.88
2023-01-17T13:32:17.341Z,0.80
2023-01-17T13:34:57.407Z,1.02
2023-01-17T13:38:09.042Z,1.20
2023-01-17T13:40:51.709Z,0.80
2023-01-17T13:43:41.156Z,0.70
2023-01-17T13:46:11.301Z,0.77
2023-01-17T13:48:40.851Z,0.70
2023-01-17T13:51:09.657Z,1.00
2023-01-17T13:53:36.995Z,0.80
2023-01-17T13:56:18.912Z,1.00
2023-01-17T13:58:47.233Z,1.10
2023-01-17T14:01:14.053Z,0.88
2023-01-17T14:03:52.775Z,1.10
2023-01-17T14:06:40.717Z,1.03
2023-01-17T14:09:19.537Z,1.10
2023-01-17T14:12:03.288Z,1.03
2023-01-17T14:14:42.897Z,0.77
2023-01-17T14:17:30.878Z,0.90
2023-01-17T14:20:19.055Z,1.25
2023-01-17T14:22:58.055Z,1.30
2023-01-17T14:25:31.143Z,1.00
2023-01-17T14:28:06.391Z,1.37
2023-01-17T14:30:37.277Z,1.17
2023-01-17T14:33:04.791Z,1.43
2023-01-17T14:35:36.111Z,1.13
2023-01-17T14:38:05.671Z,2.40
2023-01-17T14:40:34.273Z,1.07
2023-01-17T14:43:05.548Z,1.30
2023-01-17T14:45:35.193Z,0.93
2023-01-17T14:48:12.694Z,1.00
2023-01-17T14:50:41.543Z,1.00
2023-01-17T14:53:11.522Z,0.80
2023-01-17T14:55:39.462Z,1.00
2023-01-17T14:58:06.098Z,0.90
2023-01-17T15:00:39.448Z,1.00
2023-01-17T15:03:11.437Z,1.10
2023-01-17T15:05:41.710Z,1.00
2023-01-17T15:08:15.068Z,1.20
2023-01-17T15:10:51.643Z,1.33
2023-01-17T15:13:29.884Z,4.10
2023-01-17T15:16:17.786Z,1.60
2023-01-17T15:18:44.512Z,1.47
2023-01-17T15:21:22.939Z,1.30
2023-01-17T15:24:02.278Z,1.30
2023-01-17T15:26:33.453Z,1.20
2023-01-17T15:29:31.789Z,1.40
2023-01-17T15:32:03.622Z,2.20
2023-01-17T15:34:43.098Z,4.97
2023-01-17T15:37:36.244Z,1.57
2023-01-17T15:40:25.139Z,2.20
2023-01-17T15:42:58.259Z,1.73
2023-01-17T15:45:29.511Z,3.80
2023-01-17T15:47:56.199Z,2.00
2023-01-17T15:50:30.878Z,2.53
2023-01-17T15:53:06.170Z,2.00
2023-01-17T15:55:37.038Z,1.67
2023-01-17T15:58:05.688Z,3.60
2023-01-17T16:00:39.341Z,2.00
2023-01-17T16:03:31.216Z,2.07
2023-01-17T16:06:00.820Z,1.97
2023-01-17T16:08:38.877Z,3.13
2023-01-17T16:11:10.827Z,3.60
2023-01-17T16:13:43.621Z,2.00
2023-01-17T16:16:16.725Z,2.30
2023-01-17T16:18:43.990Z,4.23
2023-01-17T16:21:19.234Z,1.90
2023-01-17T16:23:49.035Z,2.83
2023-01-17T16:26:16.173Z,3.37
2023-01-17T16:28:43.082Z,3.80
2023-01-17T16:31:09.761Z,5.17
2023-01-17T16:33:36.461Z,4.10
2023-01-17T16:36:03.398Z,4.57
2023-01-17T16:38:32.431Z,5.00
2023-01-17T16:40:59.399Z,6.03
2023-01-17T16:43:26.298Z,5.87
2023-01-17T16:45:54.160Z,5.20
2023-01-17T16:48:21.868Z,5.23
2023-01-17T16:50:50.893Z,5.77
2023-01-17T16:53:24.717Z,5.90
2023-01-17T16:55:57.327Z,5.73
2023-01-17T16:58:24.370Z,5.63
2023-01-17T17:00:55.752Z,5.53
2023-01-17T17:03:22.764Z,6.00
2023-01-17T17:06:00.359Z,5.97
2023-01-17T17:08:29.677Z,5.57
2023-01-17T17:11:07.546Z,6.00
2023-01-17T17:13:37.274Z,4.20
2023-01-17T17:16:14.866Z,4.90
2023-01-17T17:18:42.303Z,4.37
2023-01-17T17:21:09.069Z,5.67
2023-01-17T17:23:36.415Z,5.67
2023-01-17T17:26:03.066Z,5.33
2023-01-17T17:28:30.167Z,5.07
2023-01-17T17:31:11.258Z,6.50
2023-01-17T17:33:40.375Z,9.97
2023-01-17T17:36:10.405Z,7.93
2023-01-17T17:38:48.464Z,7.87
2023-01-17T17:41:18.102Z,8.63
2023-01-17T17:43:44.900Z,6.90
2023-01-17T17:46:11.643Z,7.90
2023-01-17T17:48:53.910Z,7.43
2023-01-17T17:51:32.077Z,8.10
2023-01-17T17:54:04.706Z,7.20
2023-01-17T17:56:34.531Z,6.80
2023-01-17T17:59:02.715Z,7.13
2023-01-17T18:01:29.675Z,6.77
2023-01-17T18:04:00.557Z,7.43
2023-01-17T18:06:27.572Z,7.63
2023-01-17T18:08:54.422Z,7.17
2023-01-17T18:11:23.920Z,7.33
2023-01-17T18:13:51.601Z,7.03
2023-01-17T18:16:32.683Z,8.00
2023-01-17T18:19:00.021Z,6.87
2023-01-17T18:21:28.764Z,7.27
2023-01-17T18:24:00.320Z,7.63
2023-01-17T18:26:30.154Z,8.17
2023-01-17T18:29:01.723Z,8.43
2023-01-17T18:31:30.160Z,7.30
2023-01-17T18:33:59.589Z,7.63
2023-01-17T18:36:28.956Z,7.67
2023-01-17T18:38:56.529Z,7.00
2023-01-17T18:41:28.800Z,7.87
2023-01-17T18:43:56.288Z,7.80
2023-01-17T18:46:23.376Z,8.67
2023-01-17T18:48:51.566Z,7.33
2023-01-17T18:51:19.770Z,7.67
2023-01-17T18:53:47.359Z,7.97
2023-01-17T18:56:22.116Z,8.37
2023-01-17T18:58:52.593Z,7.50
2023-01-17T19:01:25.113Z,8.10
2023-01-17T19:03:57.893Z,8.60
2023-01-17T19:06:34.330Z,8.70
2023-01-17T19:09:01.448Z,9.23
2023-01-17T19:11:30.839Z,8.50
2023-01-17T19:14:00.481Z,9.17
2023-01-17T19:16:29.955Z,9.43
2023-01-17T19:19:08.212Z,8.50
2023-01-17T19:21:35.495Z,8.23
2023-01-17T19:24:02.192Z,8.43
2023-01-17T19:26:30.127Z,8.03
2023-01-17T19:29:02.168Z,8.10
2023-01-17T19:31:30.543Z,8.90
2023-01-17T19:33:59.318Z,8.90
2023-01-17T19:36:33.936Z,9.27
2023-01-17T19:39:05.887Z,9.23
2023-01-17T19:41:45.831Z,9.00
2023-01-17T19:44:15.283Z,8.50
2023-01-17T19:46:42.066Z,8.60
2023-01-17T19:49:10.275Z,8.30
2023-01-17T19:51:39.438Z,9.07
2023-01-17T19:54:07.963Z,9.43
2023-01-17T19:56:35.226Z,8.60
2023-01-17T19:59:02.427Z,8.03
2023-01-17T20:01:32.202Z,8.43
2023-01-17T20:04:00.158Z,8.70
2023-01-17T20:06:29.581Z,8.50
2023-01-17T20:08:57.193Z,8.53
2023-01-17T20:11:25.607Z,8.57
2023-01-17T20:13:54.486Z,7.40
2023-01-17T20:16:24.724Z,8.23
2023-01-17T20:18:52.398Z,7.97
2023-01-17T20:21:24.740Z,8.43
2023-01-17T20:23:55.422Z,8.43
2023-01-17T20:26:29.268Z,9.23
2023-01-17T20:28:55.913Z,8.97
2023-01-17T20:31:24.546Z,9.07
2023-01-17T20:33:53.431Z,7.93
2023-01-17T20:36:25.580Z,9.30
2023-01-17T20:38:54.734Z,9.77
2023-01-17T20:41:21.266Z,10.13
2023-01-17T20:43:51.184Z,10.80
2023-01-17T20:46:20.262Z,11.70
2023-01-17T20:48:52.100Z,10.17
2023-01-17T20:51:20.460Z,12.80
2023-01-17T20:53:51.566Z,12.87
2023-01-17T20:56:19.305Z,12.03
2023-01-17T20:58:51.560Z,12.20
2023-01-17T21:01:19.888Z,12.03
2023-01-17T21:03:51.531Z,11.60
2023-01-17T21:06:19.609Z,11.80
2023-01-17T21:08:47.947Z,12.30
2023-01-17T21:11:17.090Z,12.37
2023-01-17T21:13:44.113Z,13.00
2023-01-17T21:16:13.577Z,12.23
2023-01-17T21:18:40.255Z,11.83
2023-01-17T21:21:09.506Z,11.60
2023-01-17T21:23:37.566Z,11.97
2023-01-17T21:26:06.269Z,12.30
2023-01-17T21:28:35.113Z,12.37
2023-01-17T21:31:19.698Z,11.50
2023-01-17T21:33:47.653Z,11.90
2023-01-17T21:36:17.734Z,11.80
2023-01-17T21:38:49.726Z,12.57
2023-01-17T21:41:16.371Z,10.97
2023-01-17T21:43:43.043Z,12.07
2023-01-17T21:46:10.043Z,11.63
2023-01-17T21:48:38.766Z,10.93
2023-01-17T21:51:07.323Z,11.83
2023-01-17T21:53:38.538Z,12.33
2023-01-17T21:56:26.786Z,12.37
2023-01-17T21:58:56.803Z,12.23
2023-01-17T22:01:26.211Z,11.63
2023-01-17T22:03:55.634Z,12.23
2023-01-17T22:06:25.129Z,11.50
2023-01-17T22:08:51.788Z,11.27
2023-01-17T22:11:20.972Z,11.73
2023-01-17T22:13:48.109Z,10.73
2023-01-17T22:16:18.029Z,10.30
2023-01-17T22:18:45.929Z,10.63
2023-01-17T22:21:17.022Z,11.10
2023-01-17T22:23:57.659Z,12.43
2023-01-17T22:26:27.297Z,11.70
2023-01-17T22:28:54.857Z,10.80
2023-01-17T22:31:24.147Z,11.30
2023-01-17T22:34:02.329Z,11.33
2023-01-17T22:36:31.909Z,11.40
2023-01-17T22:38:59.492Z,11.33
2023-01-17T22:41:33.056Z,10.33
2023-01-17T22:44:05.565Z,11.47
2023-01-17T22:46:35.543Z,10.93
2023-01-17T22:49:02.144Z,9.30
2023-01-17T22:51:29.365Z,10.10
2023-01-17T22:53:58.830Z,9.87
2023-01-17T22:56:28.671Z,9.90
2023-01-17T22:58:55.937Z,10.33
2023-01-17T23:01:28.490Z,10.33
2023-01-17T23:04:00.529Z,9.93
2023-01-17T23:06:45.425Z,10.37
2023-01-17T23:09:15.316Z,9.67
2023-01-17T23:11:52.228Z,9.30
2023-01-17T23:14:22.345Z,10.60
2023-01-17T23:17:21.011Z,10.23
2023-01-17T23:19:55.204Z,10.03
2023-01-17T23:22:24.248Z,10.20
2023-01-17T23:24:54.787Z,11.00
2023-01-17T23:27:50.049Z,10.17
2023-01-17T23:30:17.019Z,9.93
2023-01-17T23:32:47.327Z,10.20
2023-01-17T23:35:17.709Z,10.10
2023-01-17T23:38:03.150Z,11.07
2023-01-17T23:40:31.505Z,9.47
2023-01-17T23:43:16.620Z,10.50
2023-01-17T23:45:43.495Z,10.87
2023-01-17T23:48:10.743Z,10.83
2023-01-17T23:50:47.228Z,10.83
2023-01-17T23:53:22.435Z,10.77
2023-01-17T23:56:04.454Z,10.47
2023-01-17T23:58:31.244Z,11.07
